Portada
METAR-TAF:

METAR-TAF

Aeroports :

Mahajanga, Madagascar

latitud: 15-40S, longitud: 046-21E, altitud: 26 m

Observació

L'informe es va fer fa 1 hora i 3 minuts, a les 07:00 UTC
Vent 10 kt del Nord/Nord-Oest, variant entre Nord-Oest i Nord
Temperatura 31°C
Humitat 66%
Pressió 1013 hPa
Visibilitat 10 km o més
Escasses núvols a una alçada de 2300 ft

METAR: FMNM 230700Z 34010KT 310V010 9999 FEW023 31/24 Q1013 NOSIG

Hora: 11:03 (08:03 UTC)

Pronòstic

L'informe es va fer fa 3 hores i 3 minuts, a les 05:00 UTC
Pronòstic vàlid del 23 a les 06 UTC al 24 a les 06 UTC
Vent kt del Nord
Visibilitat 10 km o més
Escasses núvols a una alçada de 4000 ft
Evolucionant progressivament
l' 23 a les 06 UTC al 23 a les 09 UTC
Vent 10 kt del Nord-Oest
Evolucionant progressivament
l' 23 a les 18 UTC al 23 a les 20 UTC
Vent kt del Nord

TAF: FMNM 230500Z 2306/2406 00000KT 9999 FEW040 BECMG 2306/2309 32010KT BECMG 2318/2320 00000KT

Observacions i pronòstics meteorològics de més de 4000 aeroports (METAR i TAF).

Les estacions disponibles són els punts grocs i vermells al mapa.

Posi el ratolí al punt desitjat per veure el nom de l'estació.

Feu clic per veure les observacions i els pronòstics meteorològics.

Per canviar el mapa: feu clic els botons verds amb una creu de color negre per apropar; al botó verd amb un guió per allunyar la imatge; o en les fletxes verdes per a mapes adjacents.


METAR-TAF: